Time;durP1;ratioP1;P1;durP2;ratioP2;P2;SDS_P1;SDS_P2;PMS_P1;PMS_P2;Temp;Humidity;BMP_temperature;BMP_pressure;BME280_temperature;BME280_humidity;BME280_pressure;Samples;Min_cycle;Max_cycle;Signal;HPM_P1;HPM_P2
2023/01/02 00:04:06;;;;;;;18.88;9.85;;;;;;;;;;10297636;28;20029;-80
2023/01/02 00:09:07;;;;;;;20.43;10.47;;;;;;;;;;10322801;28;20080;-77
2023/01/02 00:14:07;;;;;;;24.90;11.25;;;;;;;;;;10308476;28;20031;-76
2023/01/02 00:19:07;;;;;;;26.98;12.73;;;;;;;;;;10311270;28;20077;-77
2023/01/02 00:24:07;;;;;;;34.20;17.27;;;;;;;;;;10318927;28;20017;-75
2023/01/02 00:29:08;;;;;;;42.30;18.83;;;;;;;;;;10318548;28;20479;-81
2023/01/02 00:34:08;;;;;;;38.95;18.08;;;;;;;;;;10317467;28;20457;-74
2023/01/02 00:39:08;;;;;;;26.52;13.98;;;;;;;;;;10318787;28;20045;-79
2023/01/02 00:44:08;;;;;;;33.88;16.33;;;;;;;;;;10317759;28;20014;-80
2023/01/02 00:49:09;;;;;;;32.08;15.10;;;;;;;;;;10314561;28;20034;-74
2023/01/02 00:54:09;;;;;;;33.05;15.52;;;;;;;;;;10279231;28;20077;-74
2023/01/02 00:59:09;;;;;;;20.70;11.53;;;;;;;;;;10278664;28;20089;-79
2023/01/02 01:04:10;;;;;;;23.48;12.25;;;;;;;;;;10308970;28;20124;-78
2023/01/02 01:09:10;;;;;;;24.87;12.53;;;;;;;;;;10318325;28;20555;-78
2023/01/02 01:14:10;;;;;;;14.95;8.25;;;;;;;;;;10318123;28;20277;-79
2023/01/02 01:19:10;;;;;;;23.30;10.95;;;;;;;;;;10317368;28;20030;-76
2023/01/02 01:24:11;;;;;;;21.60;9.75;;;;;;;;;;10318232;28;20015;-78
2023/01/02 01:29:11;;;;;;;25.60;12.32;;;;;;;;;;10317535;28;20385;-77
2023/01/02 01:34:11;;;;;;;21.08;10.43;;;;;;;;;;10317139;28;20053;-72
2023/01/02 01:39:11;;;;;;;25.50;12.73;;;;;;;;;;10317238;28;20152;-73
2023/01/02 01:44:35;;;;;;;22.08;11.27;;;;;;;;;;10317112;28;20030;-76
2023/01/02 01:49:35;;;;;;;16.42;10.02;;;;;;;;;;10362524;23;20046;-76
2023/01/02 01:54:38;;;;;;;19.23;9.23;;;;;;;;;;10357385;28;20499;-77
2023/01/02 01:59:39;;;;;;;18.27;10.50;;;;;;;;;;10357497;28;20057;-72
2023/01/02 02:04:41;;;;;;;20.38;10.93;;;;;;;;;;10362494;28;20117;-76
2023/01/02 02:09:44;;;;;;;18.42;9.70;;;;;;;;;;10363816;28;20034;-76
2023/01/02 02:14:44;;;;;;;17.50;10.02;;;;;;;;;;10347535;28;20084;-77
2023/01/02 02:19:47;;;;;;;21.70;10.63;;;;;;;;;;10335709;28;20167;-77
2023/01/02 02:25:18;;;;;;;21.05;10.18;;;;;;;;;;10363506;28;20083;-72
2023/01/02 02:30:33;;;;;;;14.50;9.57;;;;;;;;;;10338234;28;20560;-78
2023/01/02 02:35:57;;;;;;;24.30;12.50;;;;;;;;;;10322715;28;20496;-76
2023/01/02 02:41:16;;;;;;;25.38;12.75;;;;;;;;;;10323822;28;20034;-76
2023/01/02 02:46:30;;;;;;;25.65;13.10;;;;;;;;;;10322618;28;20022;-75
2023/01/02 02:51:37;;;;;;;29.15;15.27;;;;;;;;;;10321535;28;20069;-75
2023/01/02 02:56:38;;;;;;;31.80;14.07;;;;;;;;;;10323043;28;20030;-78
2023/01/02 03:01:38;;;;;;;20.70;12.40;;;;;;;;;;10321763;28;20034;-75
2023/01/02 03:06:38;;;;;;;27.70;10.43;;;;;;;;;;10322501;28;20033;-80
2023/01/02 03:11:57;;;;;;;13.85;8.00;;;;;;;;;;10321039;28;20023;-73
2023/01/02 03:17:02;;;;;;;14.73;7.05;;;;;;;;;;10321206;28;20109;-78
2023/01/02 03:22:32;;;;;;;17.52;7.63;;;;;;;;;;10336995;28;20018;-79
2023/01/02 03:27:33;;;;;;;17.90;9.68;;;;;;;;;;10311910;28;20643;-78
2023/01/02 03:32:40;;;;;;;15.93;8.68;;;;;;;;;;10336683;28;20508;-79
2023/01/02 03:37:43;;;;;;;19.55;11.68;;;;;;;;;;10336779;28;20046;-77
2023/01/02 03:42:48;;;;;;;15.25;8.82;;;;;;;;;;10321162;28;20032;-73
2023/01/02 03:47:56;;;;;;;20.40;8.95;;;;;;;;;;10320034;28;20060;-76
2023/01/02 03:52:56;;;;;;;63.15;12.00;;;;;;;;;;10319571;28;20025;-77
2023/01/02 03:58:11;;;;;;;27.20;11.50;;;;;;;;;;10335590;28;20037;-78
2023/01/02 04:03:14;;;;;;;22.42;12.32;;;;;;;;;;10327533;28;20324;-80
2023/01/02 04:08:33;;;;;;;31.42;15.05;;;;;;;;;;10336803;28;20030;-78
2023/01/02 04:13:45;;;;;;;32.42;14.70;;;;;;;;;;10319874;28;20030;-79
2023/01/02 04:19:05;;;;;;;32.40;14.55;;;;;;;;;;10320000;28;20022;-78
2023/01/02 04:24:14;;;;;;;35.53;16.65;;;;;;;;;;10324426;28;20037;-78
2023/01/02 04:29:15;;;;;;;42.75;18.23;;;;;;;;;;10335187;28;20023;-77
2023/01/02 04:34:16;;;;;;;24.42;13.35;;;;;;;;;;10318174;28;20072;-81
2023/01/02 04:39:19;;;;;;;36.97;17.85;;;;;;;;;;10318355;28;20046;-77
2023/01/02 04:44:19;;;;;;;28.05;14.40;;;;;;;;;;10278307;28;20440;-73
2023/01/02 04:49:21;;;;;;;30.23;14.23;;;;;;;;;;10286407;28;20054;-78
2023/01/02 04:54:21;;;;;;;26.77;13.60;;;;;;;;;;10318023;28;20496;-77
2023/01/02 04:59:22;;;;;;;28.58;12.88;;;;;;;;;;10322994;28;20034;-81
2023/01/02 05:04:22;;;;;;;29.10;13.52;;;;;;;;;;10321431;28;20010;-77
2023/01/02 05:09:22;;;;;;;31.65;16.40;;;;;;;;;;10346948;28;20137;-76
2023/01/02 05:14:22;;;;;;;34.75;17.13;;;;;;;;;;10333581;28;20050;-76
2023/01/02 05:19:23;;;;;;;32.78;16.02;;;;;;;;;;10316958;28;20054;-78
2023/01/02 05:24:24;;;;;;;29.20;13.40;;;;;;;;;;10317863;28;20030;-76
2023/01/02 05:29:24;;;;;;;32.28;15.63;;;;;;;;;;10317223;28;20026;-76
2023/01/02 05:34:24;;;;;;;33.83;15.07;;;;;;;;;;10315524;28;20026;-77
2023/01/02 05:39:25;;;;;;;40.85;17.13;;;;;;;;;;10323288;28;20429;-78
2023/01/02 05:44:25;;;;;;;34.17;17.20;;;;;;;;;;10340996;28;20011;-78
2023/01/02 05:49:25;;;;;;;32.67;16.95;;;;;;;;;;10324144;28;20085;-76
2023/01/02 05:54:26;;;;;;;43.30;15.68;;;;;;;;;;10320784;28;20026;-77
2023/01/02 05:59:26;;;;;;;19.35;10.55;;;;;;;;;;10340460;28;20061;-78
2023/01/02 06:04:26;;;;;;;15.45;7.70;;;;;;;;;;10318686;28;20026;-77
2023/01/02 06:09:26;;;;;;;13.68;6.70;;;;;;;;;;10324612;28;20158;-74
2023/01/02 06:14:27;;;;;;;12.82;7.03;;;;;;;;;;10339673;28;20026;-79
2023/01/02 06:19:27;;;;;;;13.97;7.77;;;;;;;;;;10323317;28;20100;-76
2023/01/02 06:24:27;;;;;;;18.58;7.53;;;;;;;;;;10296992;28;20920;-77
2023/01/02 06:29:27;;;;;;;13.13;7.63;;;;;;;;;;10321865;28;20034;-77
2023/01/02 06:34:28;;;;;;;31.58;12.93;;;;;;;;;;10310843;28;20088;-77
2023/01/02 06:39:28;;;;;;;33.58;18.60;;;;;;;;;;10322351;28;20031;-77
2023/01/02 06:44:28;;;;;;;44.33;20.40;;;;;;;;;;10321996;28;20396;-76
2023/01/02 06:49:28;;;;;;;40.92;20.88;;;;;;;;;;10321360;28;20062;-77
2023/01/02 06:54:29;;;;;;;40.20;19.90;;;;;;;;;;10338259;28;20018;-77
2023/01/02 06:59:29;;;;;;;43.13;18.83;;;;;;;;;;10321193;28;20076;-77
2023/01/02 07:04:29;;;;;;;56.92;19.85;;;;;;;;;;10321957;28;20409;-79
2023/01/02 07:09:30;;;;;;;117.77;19.03;;;;;;;;;;10337778;28;20548;-74
2023/01/02 07:14:30;;;;;;;73.25;17.75;;;;;;;;;;10322334;28;20121;-74
2023/01/02 07:19:30;;;;;;;84.88;21.02;;;;;;;;;;10319521;28;20118;-73
2023/01/02 07:24:31;;;;;;;61.70;20.45;;;;;;;;;;10320750;28;20033;-74
2023/01/02 07:29:31;;;;;;;59.22;20.38;;;;;;;;;;10333857;28;20029;-78
2023/01/02 07:34:31;;;;;;;61.83;23.23;;;;;;;;;;10318567;28;20065;-80
2023/01/02 07:39:31;;;;;;;59.22;22.48;;;;;;;;;;10320806;28;20034;-78
2023/01/02 07:44:32;;;;;;;56.92;23.63;;;;;;;;;;10318730;28;20045;-80
2023/01/02 07:49:32;;;;;;;45.83;21.13;;;;;;;;;;10311137;28;20163;-73
2023/01/02 07:54:32;;;;;;;46.83;20.50;;;;;;;;;;10322667;28;20034;-77
2023/01/02 07:59:32;;;;;;;37.20;17.80;;;;;;;;;;10310764;28;20185;-78
2023/01/02 08:04:34;;;;;;;39.00;16.85;;;;;;;;;;10318399;28;20284;-76
2023/01/02 08:09:35;;;;;;;36.65;15.52;;;;;;;;;;10319825;28;20030;-79
2023/01/02 08:14:36;;;;;;;30.80;14.85;;;;;;;;;;10321924;28;20038;-76
2023/01/02 08:19:36;;;;;;;32.97;16.15;;;;;;;;;;10317190;28;20539;-77
2023/01/02 08:24:36;;;;;;;41.67;20.10;;;;;;;;;;10317847;28;20054;-77
2023/01/02 08:29:37;;;;;;;38.30;17.23;;;;;;;;;;10326240;28;20497;-77
2023/01/02 08:34:37;;;;;;;42.05;18.10;;;;;;;;;;10315499;28;20281;-77
2023/01/02 08:39:37;;;;;;;39.95;17.75;;;;;;;;;;10320312;28;20069;-79
2023/01/02 08:44:37;;;;;;;40.65;18.30;;;;;;;;;;10316538;28;20027;-80
2023/01/02 08:49:38;;;;;;;37.47;16.40;;;;;;;;;;10319291;28;20093;-77
2023/01/02 08:54:38;;;;;;;37.73;17.93;;;;;;;;;;10304525;28;20030;-73
2023/01/02 08:59:38;;;;;;;41.20;19.85;;;;;;;;;;10319056;28;20057;-78
2023/01/02 09:04:38;;;;;;;33.72;17.05;;;;;;;;;;10318266;28;20026;-75
2023/01/02 09:09:39;;;;;;;40.70;20.00;;;;;;;;;;10327723;28;20630;-77
2023/01/02 09:14:39;;;;;;;44.83;24.03;;;;;;;;;;10314243;28;20030;-77
2023/01/02 09:19:41;;;;;;;57.15;27.48;;;;;;;;;;10311575;28;20031;-79
2023/01/02 09:24:41;;;;;;;63.22;28.33;;;;;;;;;;10295845;28;20482;-77
2023/01/02 09:29:42;;;;;;;52.60;28.20;;;;;;;;;;10324412;28;20566;-77
2023/01/02 09:34:49;;;;;;;58.63;27.83;;;;;;;;;;10325287;28;20126;-78
2023/01/02 09:39:49;;;;;;;59.00;26.70;;;;;;;;;;10324882;28;20386;-79
2023/01/02 09:44:55;;;;;;;59.38;27.15;;;;;;;;;;10327639;28;20022;-79
2023/01/02 09:50:00;;;;;;;52.80;25.95;;;;;;;;;;10324638;28;20058;-74
2023/01/02 09:55:00;;;;;;;57.00;28.40;;;;;;;;;;10325391;28;20050;-74
2023/01/02 10:00:17;;;;;;;60.08;28.42;;;;;;;;;;10339836;28;20495;-74
2023/01/02 10:05:38;;;;;;;64.00;28.48;;;;;;;;;;10324643;28;20026;-74
2023/01/02 10:10:43;;;;;;;56.13;24.67;;;;;;;;;;10323023;28;20027;-78
2023/01/02 10:15:46;;;;;;;51.53;23.08;;;;;;;;;;10320604;28;20023;-74
2023/01/02 10:20:52;;;;;;;49.90;23.08;;;;;;;;;;10324340;28;20423;-77
2023/01/02 10:26:01;;;;;;;48.85;23.33;;;;;;;;;;10323578;28;20024;-73
2023/01/02 10:31:08;;;;;;;44.65;22.38;;;;;;;;;;10322712;28;20034;-75
2023/01/02 10:36:12;;;;;;;46.85;22.40;;;;;;;;;;10321486;28;20137;-72
2023/01/02 10:41:13;;;;;;;47.70;23.98;;;;;;;;;;10323118;28;20117;-74
2023/01/02 10:46:13;;;;;;;44.25;23.45;;;;;;;;;;10321371;28;20026;-74
2023/01/02 10:51:15;;;;;;;40.17;22.73;;;;;;;;;;10321873;28;20482;-77
2023/01/02 10:56:17;;;;;;;46.35;25.20;;;;;;;;;;10321859;28;20033;-74
2023/01/02 11:01:19;;;;;;;46.95;25.50;;;;;;;;;;10321585;28;20034;-73
2023/01/02 11:06:21;;;;;;;54.88;29.17;;;;;;;;;;10322048;28;20031;-73
2023/01/02 11:11:22;;;;;;;53.70;28.08;;;;;;;;;;10321158;28;20022;-77
2023/01/02 11:16:25;;;;;;;56.60;27.73;;;;;;;;;;10320693;28;20035;-73
2023/01/02 11:21:28;;;;;;;57.05;30.33;;;;;;;;;;10320684;28;20100;-75
2023/01/02 11:26:30;;;;;;;58.08;27.67;;;;;;;;;;10321393;28;20029;-75
2023/01/02 11:31:30;;;;;;;53.67;28.30;;;;;;;;;;10336463;28;20073;-74
2023/01/02 11:36:31;;;;;;;59.73;27.97;;;;;;;;;;10303978;28;20602;-77
2023/01/02 11:47:09;;;;;;;44.17;23.58;;;;;;;;;;10317386;28;20085;-73
2023/01/02 11:52:12;;;;;;;45.47;21.40;;;;;;;;;;10315485;28;20030;-73
2023/01/02 11:57:15;;;;;;;42.00;22.23;;;;;;;;;;10330567;28;20530;-75
2023/01/02 12:02:25;;;;;;;38.97;22.20;;;;;;;;;;10315425;28;20030;-73
2023/01/02 12:07:41;;;;;;;36.70;20.40;;;;;;;;;;10313098;28;20022;-76
2023/01/02 12:12:41;;;;;;;44.10;22.92;;;;;;;;;;10299292;28;20019;-76
2023/01/02 12:18:00;;;;;;;35.53;18.60;;;;;;;;;;10315482;28;20045;-72
2023/01/02 12:23:14;;;;;;;32.90;18.27;;;;;;;;;;10315139;28;20018;-78
2023/01/02 12:28:30;;;;;;;40.65;18.63;;;;;;;;;;10316481;28;20014;-80
2023/01/02 12:33:36;;;;;;;37.85;20.80;;;;;;;;;;10315300;28;20026;-78
2023/01/02 12:38:52;;;;;;;43.40;23.42;;;;;;;;;;10319145;28;20081;-78
2023/01/02 12:43:52;;;;;;;51.95;25.95;;;;;;;;;;10318260;28;20038;-77
2023/01/02 12:49:06;;;;;;;49.33;25.08;;;;;;;;;;10317993;28;20054;-80
2023/01/02 12:54:21;;;;;;;50.42;24.75;;;;;;;;;;10317902;28;20117;-79
2023/01/02 12:59:36;;;;;;;53.45;23.88;;;;;;;;;;10340207;28;20022;-79
2023/01/02 13:04:40;;;;;;;46.28;21.38;;;;;;;;;;10329057;28;20030;-76
2023/01/02 13:09:41;;;;;;;44.03;18.23;;;;;;;;;;10305677;28;20034;-74
2023/01/02 13:14:54;;;;;;;38.88;17.17;;;;;;;;;;10321467;28;20038;-78
2023/01/02 13:20:03;;;;;;;30.20;15.23;;;;;;;;;;10297216;28;20193;-73
2023/01/02 13:25:04;;;;;;;32.38;15.15;;;;;;;;;;10324358;28;20108;-78
2023/01/02 13:30:05;;;;;;;31.52;18.20;;;;;;;;;;10313065;28;20038;-77
2023/01/02 13:35:08;;;;;;;36.60;17.45;;;;;;;;;;10320051;28;20036;-78
2023/01/02 13:40:18;;;;;;;45.30;20.38;;;;;;;;;;10307324;28;20128;-76
2023/01/02 13:45:24;;;;;;;35.20;17.55;;;;;;;;;;10308064;28;20061;-77
2023/01/02 13:50:29;;;;;;;36.15;18.67;;;;;;;;;;10319291;28;20062;-76
2023/01/02 13:55:52;;;;;;;48.28;20.85;;;;;;;;;;10313746;28;20500;-80
2023/01/02 14:00:54;;;;;;;37.50;20.27;;;;;;;;;;10314000;28;20499;-78
2023/01/02 14:05:59;;;;;;;38.42;20.30;;;;;;;;;;10318100;28;20033;-75
2023/01/02 14:11:18;;;;;;;40.00;19.33;;;;;;;;;;10312587;28;20069;-79
2023/01/02 14:16:22;;;;;;;41.17;19.25;;;;;;;;;;10311809;28;20037;-74
2023/01/02 14:21:30;;;;;;;33.65;17.90;;;;;;;;;;10310358;28;20139;-78
2023/01/02 14:26:35;;;;;;;34.50;16.13;;;;;;;;;;10330563;28;20085;-78
2023/01/02 14:31:35;;;;;;;31.17;17.70;;;;;;;;;;10330184;28;20038;-74
2023/01/02 14:36:42;;;;;;;32.73;17.93;;;;;;;;;;10314028;28;20034;-78
2023/01/02 14:47:12;;;;;;;43.97;16.83;;;;;;;;;;10309842;28;20078;-79
2023/01/02 14:52:16;;;;;;;38.53;18.13;;;;;;;;;;10322808;28;20489;-77
2023/01/02 14:57:22;;;;;;;42.38;18.52;;;;;;;;;;10304667;28;20042;-75
2023/01/02 15:02:28;;;;;;;38.08;20.10;;;;;;;;;;10300555;28;20030;-77
2023/01/02 15:07:36;;;;;;;38.05;19.63;;;;;;;;;;10313368;28;20026;-76
2023/01/02 15:13:06;;;;;;;54.97;23.75;;;;;;;;;;10311122;28;20100;-78
2023/01/02 15:18:19;;;;;;;68.03;21.88;;;;;;;;;;10320512;28;20038;-77
2023/01/02 15:23:23;;;;;;;49.85;21.77;;;;;;;;;;10312696;28;20500;-73
2023/01/02 15:28:28;;;;;;;65.22;22.92;;;;;;;;;;10311580;28;20014;-77
2023/01/02 15:33:29;;;;;;;65.70;24.13;;;;;;;;;;10325206;28;20539;-73
2023/01/02 15:38:29;;;;;;;59.25;22.77;;;;;;;;;;10305932;28;20405;-76
2023/01/02 15:48:38;;;;;;;75.97;25.13;;;;;;;;;;10383673;28;20072;-73
2023/01/02 15:53:39;;;;;;;70.03;25.65;;;;;;;;;;10380905;28;20061;-78
2023/01/02 15:58:46;;;;;;;66.43;26.13;;;;;;;;;;10358235;28;20029;-78
2023/01/02 16:03:54;;;;;;;82.90;29.75;;;;;;;;;;10377420;28;20037;-76
2023/01/02 16:08:55;;;;;;;85.43;30.90;;;;;;;;;;10373854;28;20642;-80
2023/01/02 16:19:19;;;;;;;75.55;29.10;;;;;;;;;;10391057;28;20034;-78
2023/01/02 16:24:22;;;;;;;77.47;31.20;;;;;;;;;;10369501;28;20022;-75
2023/01/02 16:29:23;;;;;;;74.93;32.42;;;;;;;;;;10372027;28;20496;-77
2023/01/02 16:34:37;;;;;;;76.57;32.70;;;;;;;;;;10376085;28;20029;-78
2023/01/02 16:39:40;;;;;;;71.97;31.70;;;;;;;;;;10373188;28;20120;-78
2023/01/02 16:44:40;;;;;;;83.68;31.33;;;;;;;;;;10369215;28;20065;-79
2023/01/02 16:49:41;;;;;;;77.53;33.05;;;;;;;;;;10368692;28;20076;-80
2023/01/02 16:54:42;;;;;;;77.70;31.55;;;;;;;;;;10374733;28;20190;-79
2023/01/02 16:59:42;;;;;;;71.78;32.40;;;;;;;;;;10378282;28;20040;-75
2023/01/02 17:04:43;;;;;;;75.15;32.28;;;;;;;;;;10380694;28;20057;-79
2023/01/02 17:09:43;;;;;;;78.77;32.67;;;;;;;;;;10365809;28;20030;-78
2023/01/02 17:14:43;;;;;;;67.25;30.58;;;;;;;;;;10372780;28;20817;-76
2023/01/02 17:19:43;;;;;;;73.10;29.88;;;;;;;;;;10373489;28;20478;-78
2023/01/02 17:24:44;;;;;;;62.37;28.80;;;;;;;;;;10369933;28;20109;-74
2023/01/02 17:29:44;;;;;;;57.47;25.67;;;;;;;;;;10366053;28;20268;-77
2023/01/02 17:34:46;;;;;;;65.28;26.42;;;;;;;;;;10375277;28;20026;-75
2023/01/02 17:39:47;;;;;;;68.82;28.25;;;;;;;;;;10378844;28;20267;-78
2023/01/02 17:44:47;;;;;;;62.10;30.30;;;;;;;;;;10378504;28;20100;-72
2023/01/02 17:49:48;;;;;;;69.07;30.58;;;;;;;;;;10395694;28;20039;-74
2023/01/02 17:54:48;;;;;;;59.22;29.15;;;;;;;;;;10373505;28;20022;-78
2023/01/02 17:59:49;;;;;;;69.40;30.13;;;;;;;;;;10378220;28;20040;-79
2023/01/02 18:04:50;;;;;;;71.18;30.88;;;;;;;;;;10376615;28;20033;-76
2023/01/02 18:09:50;;;;;;;63.38;29.98;;;;;;;;;;10390446;28;20033;-73
2023/01/02 18:14:51;;;;;;;72.80;30.95;;;;;;;;;;10396761;28;20124;-73
2023/01/02 18:19:52;;;;;;;65.57;29.90;;;;;;;;;;10380126;28;20064;-77
2023/01/02 18:24:53;;;;;;;68.30;33.15;;;;;;;;;;10377794;28;20025;-73
2023/01/02 18:30:01;;;;;;;63.58;28.75;;;;;;;;;;10376735;28;20029;-73
2023/01/02 18:35:34;;;;;;;63.13;28.05;;;;;;;;;;10376389;28;20502;-73
2023/01/02 18:40:35;;;;;;;63.42;25.48;;;;;;;;;;10334091;28;20446;-73
2023/01/02 18:45:36;;;;;;;54.95;26.83;;;;;;;;;;10380771;28;20431;-75
2023/01/02 18:50:36;;;;;;;53.92;25.63;;;;;;;;;;10378697;28;20430;-73
2023/01/02 18:55:36;;;;;;;68.10;28.40;;;;;;;;;;10377574;28;20025;-73
2023/01/02 19:00:38;;;;;;;51.85;24.85;;;;;;;;;;10397278;28;20064;-75
2023/01/02 19:05:39;;;;;;;51.88;25.25;;;;;;;;;;10378860;28;20022;-73
2023/01/02 19:10:45;;;;;;;53.08;24.85;;;;;;;;;;10385191;28;20145;-77
2023/01/02 19:15:52;;;;;;;52.95;25.45;;;;;;;;;;10375851;28;20052;-77
2023/01/02 19:21:16;;;;;;;53.50;22.33;;;;;;;;;;10366218;28;20124;-77
2023/01/02 19:26:20;;;;;;;47.63;20.33;;;;;;;;;;10358497;28;20034;-74
2023/01/02 19:31:20;;;;;;;57.92;23.98;;;;;;;;;;10359353;28;20022;-76
2023/01/02 19:36:23;;;;;;;49.75;24.15;;;;;;;;;;10374002;28;20038;-78
2023/01/02 19:46:42;;;;;;;36.42;18.75;;;;;;;;;;10389976;28;20045;-80
2023/01/02 19:51:42;;;;;;;40.15;18.63;;;;;;;;;;10371644;28;20427;-78
2023/01/02 19:56:42;;;;;;;47.40;20.10;;;;;;;;;;10372168;28;20037;-76
2023/01/02 20:01:43;;;;;;;49.83;20.25;;;;;;;;;;10374503;28;20498;-74
2023/01/02 20:06:43;;;;;;;50.40;23.63;;;;;;;;;;10373868;28;20112;-73
2023/01/02 20:17:03;;;;;;;43.92;20.90;;;;;;;;;;10396638;28;20026;-78
2023/01/02 20:22:04;;;;;;;55.97;22.95;;;;;;;;;;10370298;28;20037;-74
2023/01/02 20:27:04;;;;;;;53.42;20.95;;;;;;;;;;10396507;28;20029;-78
2023/01/02 20:32:04;;;;;;;42.47;19.77;;;;;;;;;;10381190;28;20407;-70
2023/01/02 20:37:05;;;;;;;40.75;19.80;;;;;;;;;;10380261;28;20419;-76
2023/01/02 20:42:05;;;;;;;38.23;19.87;;;;;;;;;;10379943;28;20032;-79
2023/01/02 20:47:06;;;;;;;46.17;20.35;;;;;;;;;;10377360;28;20042;-80
2023/01/02 20:52:06;;;;;;;36.28;18.77;;;;;;;;;;10373443;28;20489;-77
2023/01/02 20:57:07;;;;;;;41.58;18.67;;;;;;;;;;10373660;28;20415;-73
2023/01/02 21:02:07;;;;;;;40.83;19.30;;;;;;;;;;10374776;28;20392;-73
2023/01/02 21:07:07;;;;;;;34.92;18.70;;;;;;;;;;10358938;28;20120;-78
2023/01/02 21:13:06;;;;;;;36.25;18.73;;;;;;;;;;10380740;28;20030;-78
2023/01/02 21:17:28;;;;;;;39.95;18.55;;;;;;;;;;10382013;28;20108;-77
2023/01/02 21:22:28;;;;;;;35.10;17.45;;;;;;;;;;10387903;28;20036;-73
2023/01/02 21:27:28;;;;;;;36.20;19.40;;;;;;;;;;10391840;28;20018;-79
2023/01/02 21:32:28;;;;;;;47.95;21.92;;;;;;;;;;10389615;28;20033;-76
2023/01/02 21:37:29;;;;;;;45.13;22.55;;;;;;;;;;10384563;28;20496;-74
2023/01/02 21:42:29;;;;;;;41.00;19.70;;;;;;;;;;10391930;28;20402;-72
2023/01/02 21:47:29;;;;;;;49.30;24.30;;;;;;;;;;10373140;28;20611;-78
2023/01/02 21:52:31;;;;;;;49.38;21.45;;;;;;;;;;10381666;28;20025;-80
2023/01/02 21:57:31;;;;;;;45.17;19.98;;;;;;;;;;10373153;28;20055;-79
2023/01/02 22:02:31;;;;;;;43.95;20.55;;;;;;;;;;10383256;28;20037;-78
2023/01/02 22:07:32;;;;;;;45.60;21.65;;;;;;;;;;10389751;28;20530;-76
2023/01/02 22:12:33;;;;;;;45.22;21.60;;;;;;;;;;10380132;28;20503;-78
2023/01/02 22:17:33;;;;;;;43.40;20.20;;;;;;;;;;10374404;28;20037;-78
2023/01/02 22:22:34;;;;;;;44.73;23.50;;;;;;;;;;10370609;28;20030;-78
2023/01/02 22:27:34;;;;;;;46.80;23.97;;;;;;;;;;10392700;28;20343;-74
2023/01/02 22:32:34;;;;;;;58.28;26.15;;;;;;;;;;10377266;28;20152;-77
2023/01/02 22:37:35;;;;;;;46.22;24.45;;;;;;;;;;10377317;28;20030;-77
2023/01/02 22:42:53;;;;;;;44.55;22.90;;;;;;;;;;10371480;28;20029;-77
2023/01/02 22:47:53;;;;;;;;;;;;;;;;;;10376272;28;20077;-72
2023/01/02 22:52:54;;;;;;;33.70;14.82;;;;;;;;;;10367107;28;20008;-76
2023/01/02 22:57:54;;;;;;;28.92;14.00;;;;;;;;;;10369164;28;20080;-74
2023/01/02 23:02:55;;;;;;;51.75;23.25;;;;;;;;;;10387575;28;20434;-78
2023/01/02 23:07:56;;;;;;;43.42;21.70;;;;;;;;;;10370061;28;20033;-73
2023/01/02 23:12:56;;;;;;;57.60;23.27;;;;;;;;;;10377669;28;20029;-74
2023/01/02 23:23:15;;;;;;;44.60;23.77;;;;;;;;;;10397184;28;20025;-77
2023/01/02 23:28:15;;;;;;;46.63;23.55;;;;;;;;;;10385500;28;20013;-78
2023/01/02 23:33:16;;;;;;;45.03;21.50;;;;;;;;;;10397228;28;20136;-79
2023/01/02 23:38:16;;;;;;;54.85;24.95;;;;;;;;;;10386146;28;20026;-78
2023/01/02 23:43:17;;;;;;;53.38;24.30;;;;;;;;;;10384674;28;20029;-74
2023/01/02 23:48:17;;;;;;;59.72;27.88;;;;;;;;;;10402650;28;20427;-77
2023/01/02 23:53:17;;;;;;;45.47;23.48;;;;;;;;;;10385508;28;20116;-77
2023/01/02 23:58:18;;;;;;;51.70;23.45;;;;;;;;;;10370006;28;20511;-73
